createdAt,value
2022-12-09T00:00:09.458Z,13.33
2022-12-09T00:02:59.597Z,13.80
2022-12-09T00:05:28.656Z,13.27
2022-12-09T00:07:58.508Z,12.47
2022-12-09T00:10:27.276Z,12.80
2022-12-09T00:12:56.788Z,12.37
2022-12-09T00:15:25.829Z,11.73
2022-12-09T00:17:54.430Z,13.33
2022-12-09T00:20:23.230Z,13.37
2022-12-09T00:22:52.286Z,13.77
2022-12-09T00:25:22.171Z,13.27
2022-12-09T00:27:50.541Z,14.87
2022-12-09T00:30:19.337Z,12.93
2022-12-09T00:32:48.070Z,12.97
2022-12-09T00:35:16.937Z,13.73
2022-12-09T00:37:45.251Z,13.70
2022-12-09T00:40:15.176Z,12.63
2022-12-09T00:42:44.919Z,13.20
2022-12-09T00:45:13.497Z,14.47
2022-12-09T00:47:42.379Z,12.87
2022-12-09T00:50:11.933Z,13.87
2022-12-09T00:52:40.217Z,13.93
2022-12-09T00:55:10.051Z,12.07
2022-12-09T00:57:39.949Z,13.13
2022-12-09T01:00:12.030Z,13.53
2022-12-09T01:02:40.864Z,13.17
2022-12-09T01:05:10.196Z,13.60
2022-12-09T01:07:39.037Z,13.70
2022-12-09T01:10:09.396Z,14.00
2022-12-09T01:12:39.098Z,12.13
2022-12-09T01:15:10.839Z,14.77
2022-12-09T01:17:41.501Z,13.57
2022-12-09T01:20:11.802Z,13.33
2022-12-09T01:22:40.787Z,13.20
2022-12-09T01:25:10.140Z,12.93
2022-12-09T01:27:38.638Z,12.77
2022-12-09T01:30:12.190Z,13.97
2022-12-09T01:32:41.006Z,13.30
2022-12-09T01:35:10.484Z,13.20
2022-12-09T01:37:39.524Z,13.60
2022-12-09T01:40:15.524Z,14.50
2022-12-09T01:42:44.117Z,14.73
2022-12-09T01:45:40.979Z,14.37
2022-12-09T01:48:14.240Z,14.57
2022-12-09T01:50:51.575Z,12.80
2022-12-09T01:53:22.697Z,14.03
2022-12-09T01:55:51.766Z,13.27
2022-12-09T01:58:20.838Z,13.73
2022-12-09T02:00:51.045Z,14.17
2022-12-09T02:03:22.491Z,13.40
2022-12-09T02:05:51.659Z,12.23
2022-12-09T02:08:21.453Z,12.77
2022-12-09T02:11:03.762Z,14.23
2022-12-09T02:13:38.737Z,13.17
2022-12-09T02:16:14.293Z,13.87
2022-12-09T02:18:49.646Z,13.47
2022-12-09T02:21:26.641Z,13.10
2022-12-09T02:24:01.836Z,13.43
2022-12-09T02:26:40.808Z,13.53
2022-12-09T02:29:40.285Z,14.33
2022-12-09T02:32:47.071Z,13.10
2022-12-09T02:35:24.494Z,14.07
2022-12-09T02:38:00.126Z,13.43
2022-12-09T02:40:33.057Z,13.60
2022-12-09T02:43:06.707Z,13.97
2022-12-09T02:45:38.811Z,15.33
2022-12-09T02:48:10.275Z,15.47
2022-12-09T02:50:43.964Z,15.20
2022-12-09T02:53:15.833Z,14.93
2022-12-09T02:55:48.130Z,13.63
2022-12-09T02:58:17.305Z,15.57
2022-12-09T03:00:46.032Z,15.80
2022-12-09T03:03:19.126Z,14.33
2022-12-09T03:05:57.652Z,14.90
2022-12-09T03:08:35.587Z,15.80
2022-12-09T03:11:07.469Z,14.40
2022-12-09T03:13:44.408Z,14.47
2022-12-09T03:16:19.177Z,13.87
2022-12-09T03:18:52.784Z,15.13
2022-12-09T03:21:26.190Z,12.90
2022-12-09T03:23:57.906Z,14.67
2022-12-09T03:26:29.395Z,15.00
2022-12-09T03:29:00.154Z,14.33
2022-12-09T03:31:31.869Z,14.20
2022-12-09T03:34:05.241Z,15.03
2022-12-09T03:36:37.906Z,16.03
2022-12-09T03:39:09.889Z,14.17
2022-12-09T03:41:39.797Z,13.43
2022-12-09T03:44:12.610Z,13.53
2022-12-09T03:46:41.310Z,14.90
2022-12-09T03:49:10.993Z,15.63
2022-12-09T03:51:46.327Z,14.50
2022-12-09T03:54:20.267Z,15.73
2022-12-09T03:56:53.234Z,13.43
2022-12-09T03:59:23.865Z,13.63
2022-12-09T04:01:53.815Z,13.80
2022-12-09T04:04:22.897Z,15.13
2022-12-09T04:06:55.199Z,14.03
2022-12-09T04:09:24.218Z,14.70
2022-12-09T04:11:53.071Z,14.70
2022-12-09T04:14:21.786Z,15.00
2022-12-09T04:16:50.240Z,13.73
2022-12-09T04:19:18.972Z,15.33
2022-12-09T04:21:47.743Z,14.53
2022-12-09T04:24:17.998Z,14.50
2022-12-09T04:26:46.817Z,13.37
2022-12-09T04:29:15.565Z,14.50
2022-12-09T04:31:44.014Z,14.33
2022-12-09T04:34:14.910Z,14.00
2022-12-09T04:36:43.277Z,14.10
2022-12-09T04:39:11.955Z,15.13
2022-12-09T04:41:42.029Z,15.40
2022-12-09T04:44:10.796Z,13.43
2022-12-09T04:46:39.312Z,14.40
2022-12-09T04:49:08.202Z,15.60
2022-12-09T04:51:40.001Z,15.37
2022-12-09T04:54:12.365Z,13.77
2022-12-09T04:56:45.624Z,14.83
2022-12-09T04:59:15.622Z,15.63
2022-12-09T05:01:44.382Z,14.37
2022-12-09T05:04:13.266Z,15.07
2022-12-09T05:06:42.495Z,15.73
2022-12-09T05:09:13.689Z,15.53
2022-12-09T05:11:43.878Z,16.27
2022-12-09T05:14:12.518Z,15.20
2022-12-09T05:16:41.367Z,15.03
2022-12-09T05:19:11.205Z,16.00
2022-12-09T05:21:44.108Z,16.70
2022-12-09T05:24:13.083Z,16.13
2022-12-09T05:26:42.951Z,16.87
2022-12-09T05:29:11.877Z,14.17
2022-12-09T05:31:41.156Z,16.13
2022-12-09T05:34:10.278Z,15.90
2022-12-09T05:36:38.791Z,16.70
2022-12-09T05:39:07.884Z,16.13
2022-12-09T05:41:36.660Z,15.60
2022-12-09T05:44:07.044Z,15.83
2022-12-09T05:46:36.034Z,15.93
2022-12-09T05:49:05.103Z,15.77
2022-12-09T05:51:34.586Z,16.83
2022-12-09T05:54:04.729Z,17.37
2022-12-09T05:56:34.502Z,15.70
2022-12-09T05:59:03.390Z,15.37
2022-12-09T06:01:33.637Z,15.17
2022-12-09T06:04:02.609Z,15.70
2022-12-09T06:06:32.077Z,16.03
2022-12-09T06:09:02.805Z,15.83
2022-12-09T06:11:32.609Z,15.40
2022-12-09T06:14:02.145Z,17.33
2022-12-09T06:16:30.811Z,15.57
2022-12-09T06:19:01.349Z,16.67
2022-12-09T06:21:29.997Z,14.70
2022-12-09T06:23:58.687Z,16.20
2022-12-09T06:26:29.901Z,17.03
2022-12-09T06:28:59.723Z,17.07
2022-12-09T06:31:29.442Z,17.67
2022-12-09T06:33:59.765Z,16.80
2022-12-09T06:36:32.103Z,16.43
2022-12-09T06:39:09.613Z,17.53
2022-12-09T06:41:41.403Z,16.80
2022-12-09T06:44:15.835Z,15.77
2022-12-09T06:46:50.367Z,17.63
2022-12-09T06:49:19.283Z,16.03
2022-12-09T06:51:49.200Z,15.97
2022-12-09T06:54:18.055Z,17.00
2022-12-09T06:56:46.561Z,17.90
2022-12-09T06:59:15.574Z,16.43
2022-12-09T07:01:44.911Z,15.70
2022-12-09T07:04:15.828Z,18.10
2022-12-09T07:06:46.096Z,16.53
2022-12-09T07:09:18.055Z,17.43
2022-12-09T07:11:48.147Z,17.33
2022-12-09T07:14:18.365Z,16.50
2022-12-09T07:16:48.010Z,16.33
2022-12-09T07:19:19.004Z,16.33
2022-12-09T07:21:47.901Z,15.17
2022-12-09T07:24:19.774Z,15.90
2022-12-09T07:26:49.352Z,17.40
2022-12-09T07:29:18.761Z,15.63
2022-12-09T07:31:48.087Z,15.17
2022-12-09T07:34:17.828Z,15.97
2022-12-09T07:36:46.682Z,15.10
2022-12-09T07:39:19.320Z,14.83
2022-12-09T07:41:48.646Z,15.70
2022-12-09T07:44:18.082Z,15.73
2022-12-09T07:46:47.123Z,14.73
2022-12-09T07:49:16.701Z,16.40
2022-12-09T07:51:45.877Z,16.60
2022-12-09T07:54:16.334Z,14.37
2022-12-09T07:56:47.039Z,16.60
2022-12-09T07:59:17.743Z,17.80
2022-12-09T08:01:46.680Z,16.47
2022-12-09T08:04:15.548Z,17.13
2022-12-09T08:06:44.724Z,17.87
2022-12-09T08:09:15.723Z,18.73
2022-12-09T08:11:46.212Z,18.43
2022-12-09T08:14:15.764Z,19.13
2022-12-09T08:16:44.741Z,19.00
2022-12-09T08:19:14.565Z,19.30
2022-12-09T08:21:44.458Z,17.53
2022-12-09T08:24:15.269Z,18.00
2022-12-09T08:26:45.232Z,18.20
2022-12-09T08:29:15.302Z,19.17
2022-12-09T08:31:44.637Z,20.90
2022-12-09T08:34:14.577Z,18.57
2022-12-09T08:36:44.446Z,18.57
2022-12-09T08:39:14.756Z,19.57
2022-12-09T08:41:46.098Z,18.03
2022-12-09T08:44:16.561Z,19.43
2022-12-09T08:46:47.317Z,17.70
2022-12-09T08:49:18.898Z,18.83
2022-12-09T08:51:49.200Z,18.57
2022-12-09T08:54:18.459Z,19.40
2022-12-09T08:56:50.052Z,18.00
2022-12-09T08:59:20.126Z,18.20
2022-12-09T09:01:49.482Z,18.43
2022-12-09T09:04:20.812Z,18.33
2022-12-09T09:06:51.636Z,18.50
2022-12-09T09:09:21.539Z,18.57
2022-12-09T09:11:52.000Z,19.33
2022-12-09T09:14:20.992Z,19.47
2022-12-09T09:16:49.917Z,19.43
2022-12-09T09:19:20.864Z,18.23
2022-12-09T09:21:50.197Z,18.90
2022-12-09T09:24:22.163Z,18.57
2022-12-09T09:26:53.966Z,19.73
2022-12-09T09:29:24.786Z,19.20
2022-12-09T09:31:55.224Z,19.53
2022-12-09T09:34:26.092Z,19.73
2022-12-09T09:36:55.040Z,20.50
2022-12-09T09:39:24.177Z,19.67
2022-12-09T09:41:56.440Z,20.10
2022-12-09T09:44:28.889Z,19.63
2022-12-09T09:46:58.665Z,19.50
2022-12-09T09:49:36.935Z,20.47
2022-12-09T09:52:10.900Z,20.17
2022-12-09T09:54:39.664Z,18.63
2022-12-09T09:57:15.685Z,19.23
2022-12-09T10:00:09.257Z,19.97
2022-12-09T10:02:59.702Z,19.20
2022-12-09T10:05:32.610Z,18.10
2022-12-09T10:08:18.886Z,19.40
2022-12-09T10:11:00.844Z,21.83
2022-12-09T10:13:45.115Z,20.03
2022-12-09T10:16:17.962Z,19.83
2022-12-09T10:19:04.218Z,19.57
2022-12-09T10:21:41.473Z,19.60
2022-12-09T10:24:23.184Z,19.80
2022-12-09T10:27:01.400Z,19.20
2022-12-09T10:29:49.926Z,19.40
2022-12-09T10:32:21.428Z,20.10
2022-12-09T10:34:50.528Z,19.87
2022-12-09T10:37:26.766Z,19.80
2022-12-09T10:40:02.246Z,19.30
2022-12-09T10:42:53.098Z,19.33
2022-12-09T10:45:24.601Z,19.37
2022-12-09T10:47:54.088Z,19.73
2022-12-09T10:50:31.642Z,19.23
2022-12-09T10:53:06.872Z,19.37
2022-12-09T10:55:38.275Z,19.63
2022-12-09T10:58:19.012Z,18.97
2022-12-09T11:01:02.943Z,18.83
2022-12-09T11:03:35.339Z,21.23
2022-12-09T11:06:23.028Z,19.70
2022-12-09T11:08:58.279Z,21.50
2022-12-09T11:11:42.852Z,19.23
2022-12-09T11:14:26.397Z,20.33
2022-12-09T11:16:59.659Z,18.00
2022-12-09T11:19:34.119Z,18.37
2022-12-09T11:22:28.070Z,19.70
2022-12-09T11:25:06.967Z,18.57
2022-12-09T11:27:36.194Z,20.10
2022-12-09T11:30:14.301Z,19.47
2022-12-09T11:32:59.825Z,18.27
2022-12-09T11:35:37.551Z,18.33
2022-12-09T11:38:19.127Z,19.67
2022-12-09T11:41:06.229Z,19.90
2022-12-09T11:43:38.898Z,19.70
2022-12-09T11:46:18.905Z,19.73
2022-12-09T11:48:57.389Z,19.37
2022-12-09T11:51:30.372Z,18.20
2022-12-09T11:54:03.760Z,18.87
2022-12-09T11:56:34.733Z,19.40
2022-12-09T11:59:07.156Z,18.37
2022-12-09T12:01:48.039Z,18.00
2022-12-09T12:04:21.357Z,18.97
2022-12-09T12:06:52.763Z,17.13
2022-12-09T12:09:25.622Z,17.13
2022-12-09T12:12:04.263Z,16.87
2022-12-09T12:14:33.615Z,15.50
2022-12-09T12:17:10.459Z,16.07
2022-12-09T12:19:42.680Z,15.83
2022-12-09T12:22:54.870Z,16.10
2022-12-09T12:25:49.753Z,15.33
2022-12-09T12:28:33.025Z,15.43
2022-12-09T12:31:11.469Z,15.00
2022-12-09T12:34:25.700Z,17.37
2022-12-09T12:36:53.237Z,17.13
2022-12-09T12:39:36.812Z,15.70
2022-12-09T12:42:16.510Z,15.53
2022-12-09T12:45:10.084Z,15.80
2022-12-09T12:47:45.840Z,15.80
2022-12-09T12:50:30.520Z,17.37
2022-12-09T12:53:08.104Z,15.77
2022-12-09T12:55:50.458Z,16.67
2022-12-09T12:58:38.819Z,14.10
2022-12-09T13:01:15.326Z,15.13
2022-12-09T13:03:54.969Z,16.73
2022-12-09T13:06:40.138Z,16.20
2022-12-09T13:09:17.634Z,16.40
2022-12-09T13:12:08.132Z,17.03
2022-12-09T13:14:48.781Z,16.27
2022-12-09T13:17:23.152Z,15.50
2022-12-09T13:19:53.534Z,16.13
2022-12-09T13:22:26.790Z,16.50
2022-12-09T13:25:03.438Z,16.73
2022-12-09T13:27:39.182Z,18.00
2022-12-09T13:30:13.372Z,16.30
2022-12-09T13:33:11.717Z,16.53
2022-12-09T13:35:46.191Z,16.80
2022-12-09T13:38:26.826Z,16.33
2022-12-09T13:40:56.656Z,15.87
2022-12-09T13:43:28.147Z,16.53
2022-12-09T13:45:59.393Z,16.37
2022-12-09T13:48:55.300Z,16.13
2022-12-09T13:51:27.373Z,15.50
2022-12-09T13:54:03.593Z,15.93
2022-12-09T13:56:36.403Z,15.33
2022-12-09T13:59:39.939Z,15.77
2022-12-09T14:02:23.849Z,14.40
2022-12-09T14:05:02.381Z,13.10
2022-12-09T14:07:37.207Z,15.90
2022-12-09T14:10:07.617Z,13.27
2022-12-09T14:13:19.665Z,15.10
2022-12-09T14:15:49.183Z,13.17
2022-12-09T14:18:32.671Z,13.80
2022-12-09T14:21:30.695Z,12.77
2022-12-09T14:24:36.646Z,14.10
2022-12-09T14:27:19.708Z,14.77
2022-12-09T14:29:52.350Z,16.30
2022-12-09T14:32:29.987Z,15.17
2022-12-09T14:35:26.386Z,15.70
2022-12-09T14:38:14.190Z,15.93
2022-12-09T14:40:56.684Z,16.23
2022-12-09T14:43:53.519Z,15.07
2022-12-09T14:46:27.289Z,14.47
2022-12-09T14:48:59.253Z,15.43
2022-12-09T14:51:34.261Z,16.23
2022-12-09T14:54:07.204Z,13.40
2022-12-09T14:56:36.128Z,13.93
2022-12-09T14:59:08.521Z,14.70
2022-12-09T15:01:56.207Z,14.33
2022-12-09T15:04:29.851Z,13.73
2022-12-09T15:07:12.589Z,15.23
2022-12-09T15:09:53.301Z,15.80
2022-12-09T15:12:25.352Z,13.87
2022-12-09T15:14:59.581Z,15.20
2022-12-09T15:17:33.596Z,14.17
2022-12-09T15:20:02.527Z,16.70
2022-12-09T15:22:33.308Z,14.20
2022-12-09T15:25:03.105Z,14.30
2022-12-09T15:27:31.592Z,14.40
2022-12-09T15:30:00.236Z,15.63
2022-12-09T15:32:31.756Z,15.60
2022-12-09T15:35:16.710Z,17.00
2022-12-09T15:37:45.997Z,17.37
2022-12-09T15:40:19.938Z,17.30
2022-12-09T15:42:52.111Z,17.93
2022-12-09T15:45:24.992Z,18.07
2022-12-09T15:47:58.602Z,17.20
2022-12-09T15:50:31.706Z,18.07
2022-12-09T15:53:04.368Z,17.53
2022-12-09T15:55:38.278Z,21.10
2022-12-09T15:58:10.435Z,18.53
2022-12-09T16:00:42.444Z,19.33
2022-12-09T16:03:12.768Z,16.67
2022-12-09T16:05:42.223Z,17.50
2022-12-09T16:08:11.390Z,19.70
2022-12-09T16:10:48.164Z,16.33
2022-12-09T16:13:21.247Z,16.87
2022-12-09T16:15:52.781Z,19.23
2022-12-09T16:18:25.213Z,19.60
2022-12-09T16:21:22.103Z,17.00
2022-12-09T16:23:53.754Z,20.47
2022-12-09T16:26:28.906Z,18.83
2022-12-09T16:28:59.609Z,17.00
2022-12-09T16:31:28.818Z,17.90
2022-12-09T16:33:58.990Z,18.63
2022-12-09T16:36:29.925Z,19.30
2022-12-09T16:39:34.332Z,16.57
2022-12-09T16:42:03.473Z,17.87
2022-12-09T16:44:35.733Z,16.03
2022-12-09T16:47:11.927Z,15.30
2022-12-09T16:49:43.558Z,14.70
2022-12-09T16:52:13.993Z,14.83
2022-12-09T16:54:44.153Z,13.60
2022-12-09T16:57:14.390Z,15.77
2022-12-09T16:59:43.668Z,14.97
2022-12-09T17:02:20.702Z,15.23
2022-12-09T17:04:52.369Z,14.00
2022-12-09T17:07:21.048Z,15.87
2022-12-09T17:09:49.424Z,14.67
2022-12-09T17:12:18.052Z,16.00
2022-12-09T17:14:46.738Z,13.57
2022-12-09T17:17:15.604Z,14.80
2022-12-09T17:19:44.159Z,15.57
2022-12-09T17:22:14.494Z,14.57
2022-12-09T17:24:42.977Z,14.93
2022-12-09T17:27:11.535Z,15.63
2022-12-09T17:29:39.974Z,15.70
2022-12-09T17:32:08.613Z,12.90
2022-12-09T17:34:37.037Z,13.80
2022-12-09T17:37:05.851Z,14.87
2022-12-09T17:39:35.868Z,14.50
2022-12-09T17:42:04.735Z,16.67
2022-12-09T17:44:33.263Z,13.90
2022-12-09T17:47:02.057Z,13.50
2022-12-09T17:49:30.401Z,14.00
2022-12-09T17:51:59.077Z,16.13
2022-12-09T17:54:27.390Z,14.00
2022-12-09T17:56:57.377Z,14.53
2022-12-09T17:59:25.755Z,13.07
2022-12-09T18:01:54.305Z,14.43
2022-12-09T18:04:22.624Z,13.97
2022-12-09T18:06:51.246Z,15.10
2022-12-09T18:09:22.438Z,15.63
2022-12-09T18:11:51.930Z,15.43
2022-12-09T18:14:21.765Z,14.07
2022-12-09T18:16:51.958Z,13.90
2022-12-09T18:19:23.374Z,14.77
2022-12-09T18:21:52.435Z,14.40
2022-12-09T18:24:20.796Z,13.53
2022-12-09T18:26:49.523Z,14.70
2022-12-09T18:29:17.843Z,15.53
2022-12-09T18:31:54.213Z,14.60
2022-12-09T18:34:23.221Z,14.23
2022-12-09T18:36:52.166Z,14.43
2022-12-09T18:39:20.898Z,16.20
2022-12-09T18:41:49.568Z,15.53
2022-12-09T18:44:18.033Z,15.80
2022-12-09T18:46:49.796Z,13.93
2022-12-09T18:49:19.614Z,15.30
2022-12-09T18:51:49.836Z,14.47
2022-12-09T18:54:20.340Z,15.80
2022-12-09T18:56:49.320Z,15.83
2022-12-09T18:59:19.297Z,13.97
2022-12-09T19:01:50.260Z,14.03
2022-12-09T19:04:21.225Z,15.83
2022-12-09T19:06:52.234Z,14.47
2022-12-09T19:09:22.296Z,14.97
2022-12-09T19:11:52.543Z,15.37
2022-12-09T19:14:22.864Z,14.60
2022-12-09T19:16:53.409Z,15.43
2022-12-09T19:19:24.511Z,15.03
2022-12-09T19:21:54.636Z,16.73
2022-12-09T19:24:25.563Z,15.00
2022-12-09T19:26:56.573Z,16.07
2022-12-09T19:29:26.593Z,14.60
2022-12-09T19:31:58.490Z,16.27
2022-12-09T19:34:28.650Z,15.67
2022-12-09T19:37:00.061Z,15.97
2022-12-09T19:39:31.275Z,15.23
2022-12-09T19:42:00.552Z,14.40
2022-12-09T19:45:00.803Z,16.13
2022-12-09T19:47:19.595Z,14.07
2022-12-09T19:49:48.001Z,15.73
2022-12-09T19:52:16.964Z,14.53
2022-12-09T19:54:45.348Z,15.13
2022-12-09T19:57:14.060Z,14.67
2022-12-09T19:59:42.384Z,14.83
2022-12-09T20:02:14.012Z,16.80
2022-12-09T20:04:49.213Z,15.00
2022-12-09T20:07:18.540Z,14.90
2022-12-09T20:09:47.522Z,15.47
2022-12-09T20:12:16.403Z,16.60
2022-12-09T20:14:44.751Z,16.80
2022-12-09T20:17:13.393Z,17.27
2022-12-09T20:19:43.090Z,17.03
2022-12-09T20:22:11.872Z,17.47
2022-12-09T20:24:40.225Z,17.00
2022-12-09T20:27:08.910Z,16.23
2022-12-09T20:29:38.200Z,17.40
2022-12-09T20:32:08.925Z,19.60
2022-12-09T20:34:37.446Z,18.40
2022-12-09T20:37:07.668Z,18.33
2022-12-09T20:39:36.147Z,18.87
2022-12-09T20:42:04.952Z,16.53
2022-12-09T20:44:33.421Z,19.77
2022-12-09T20:47:02.037Z,18.73
2022-12-09T20:49:30.683Z,19.80
2022-12-09T20:51:59.551Z,19.63
2022-12-09T20:54:29.293Z,20.87
2022-12-09T20:56:58.114Z,19.73
2022-12-09T20:59:26.547Z,18.17
2022-12-09T21:01:56.053Z,18.93
2022-12-09T21:04:24.541Z,21.20
2022-12-09T21:06:54.136Z,21.77
2022-12-09T21:09:27.024Z,23.87
2022-12-09T21:11:57.930Z,21.43
2022-12-09T21:14:31.164Z,24.43
2022-12-09T21:17:02.063Z,23.37
2022-12-09T21:19:32.314Z,22.20
2022-12-09T21:22:01.014Z,22.17
2022-12-09T21:24:29.451Z,24.80
2022-12-09T21:27:00.921Z,21.93
2022-12-09T21:29:32.268Z,23.13
2022-12-09T21:32:01.961Z,24.63
2022-12-09T21:34:30.659Z,22.47
2022-12-09T21:36:59.480Z,23.60
2022-12-09T21:39:29.138Z,23.03
2022-12-09T21:41:59.648Z,24.93
2022-12-09T21:44:29.686Z,24.03
2022-12-09T21:46:58.455Z,23.40
2022-12-09T21:49:29.617Z,23.47
2022-12-09T21:51:58.256Z,23.90
2022-12-09T21:54:26.763Z,21.70
2022-12-09T21:56:55.689Z,22.07
2022-12-09T21:59:25.452Z,20.60
2022-12-09T22:01:55.929Z,23.63
2022-12-09T22:04:24.340Z,24.80
2022-12-09T22:06:53.228Z,24.33
2022-12-09T22:09:21.635Z,24.87
2022-12-09T22:11:50.825Z,21.67
2022-12-09T22:14:19.177Z,24.20
2022-12-09T22:16:49.233Z,24.37
2022-12-09T22:19:19.734Z,25.47
2022-12-09T22:21:49.364Z,26.20
2022-12-09T22:24:18.822Z,23.57
2022-12-09T22:26:47.800Z,23.23
2022-12-09T22:29:17.885Z,24.83
2022-12-09T22:31:48.468Z,23.90
2022-12-09T22:34:19.179Z,26.83
2022-12-09T22:36:49.915Z,23.27
2022-12-09T22:39:21.599Z,24.00
2022-12-09T22:41:50.379Z,24.30
2022-12-09T22:44:20.611Z,25.83
2022-12-09T22:46:51.019Z,26.27
2022-12-09T22:49:19.821Z,26.07
2022-12-09T22:51:48.597Z,25.43
2022-12-09T22:54:16.950Z,27.33
2022-12-09T22:56:46.016Z,26.27
2022-12-09T22:59:15.629Z,25.40
2022-12-09T23:01:45.899Z,24.63
2022-12-09T23:04:17.799Z,24.43
2022-12-09T23:06:46.707Z,25.57
2022-12-09T23:09:18.991Z,25.80
2022-12-09T23:11:48.745Z,24.30
2022-12-09T23:14:17.894Z,23.27
2022-12-09T23:16:47.073Z,27.03
2022-12-09T23:19:18.009Z,23.70
2022-12-09T23:21:46.685Z,25.67
2022-12-09T23:24:24.038Z,24.57
2022-12-09T23:26:56.926Z,21.37
2022-12-09T23:29:25.375Z,25.30
2022-12-09T23:31:54.350Z,21.80
2022-12-09T23:34:24.560Z,22.77
2022-12-09T23:36:53.288Z,25.80
2022-12-09T23:39:21.625Z,24.40
2022-12-09T23:41:50.274Z,25.87
2022-12-09T23:44:19.840Z,24.23
2022-12-09T23:46:49.041Z,22.83
2022-12-09T23:49:17.657Z,25.73
2022-12-09T23:51:47.952Z,25.97
2022-12-09T23:54:18.658Z,22.73
2022-12-09T23:56:50.021Z,24.13
2022-12-09T23:59:21.069Z,23.20
